• Join FlightAware (Why Join?)
  • Login
  • US Flag 
12:14PM EDT


 

Airport Tracker/Info


-or-


 

Live Flight TrackerFlight Track Log ✈ AFL1461 ✈ 25-Feb-2014 ✈ UNNT / OVB - UUEE / SVO

Flight Track Log - Related Links

Times and Time Zones

All times are in EST time to prevent confusion due to time zone crossing. See the AFL1461 flight status page for this flight to view local times or setup timezone preferences in your user account.

Time Position Orientation Groundspeed Altitude Reporting Facility
EST Latitude Longitude Course Direction KTS MPH feet Rate Location/Type
08:06AM 56.8668 68.9803 281° West 409 471 32,000  Level FlightAware ADS-B (USTR / TJM)
08:06AM 56.8713 68.9364 281° West 407 468 32,000  Level FlightAware ADS-B (USTR / TJM)
08:06AM 56.8748 68.9021 281° West 406 467 32,000  Level FlightAware ADS-B (USTR / TJM)
08:07AM 56.8852 68.7993 281° West 405 466 32,000  Level FlightAware ADS-B (USTR / TJM)
08:07AM 56.8883 68.7679 280° West 404 465 32,000  Level FlightAware ADS-B (USTR / TJM)
08:07AM 56.8948 68.7025 280° West 402 463 32,000  Level FlightAware ADS-B (USTR / TJM)
08:07AM 56.8984 68.6666 280° West 401 461 32,000  Level FlightAware ADS-B (USTR / TJM)
08:08AM 56.9057 68.5924 280° West 398 458 32,000  Level FlightAware ADS-B (USTR / TJM)
08:08AM 56.9075 68.5732 280° West 399 459 32,000  Level FlightAware ADS-B (USTR / TJM)
08:08AM 56.9173 68.4730 280° West 397 457 32,000  Level FlightAware ADS-B (USTR / TJM)
08:08AM 56.9183 68.4625 280° West 396 456 32,000  Level FlightAware ADS-B (USTR / TJM)
08:09AM 56.9270 68.3739 280° West 396 456 32,000  Level FlightAware ADS-B (USTR / TJM)
08:09AM 56.9283 68.3600 280° West 395 455 32,000  Level FlightAware ADS-B (USTR / TJM)
08:09AM 56.9366 68.2734 280° West 396 456 32,000  Level FlightAware ADS-B (USTR / TJM)
08:09AM 56.9375 68.2649 280° West 395 455 32,000  Level FlightAware ADS-B (USTR / TJM)
08:10AM 56.9460 68.1757 280° West 396 456 32,000  Level FlightAware ADS-B (USTR / TJM)
08:10AM 56.9469 68.1665 280° West 395 455 32,000  Level FlightAware ADS-B (USTR / TJM)
08:10AM 56.9548 68.0817 280° West 395 455 32,000  Level FlightAware ADS-B (USTR / TJM)
08:10AM 56.9561 68.0678 279° West 395 455 32,000  Level FlightAware ADS-B (USTR / TJM)
08:11AM 56.9648 67.9746 280° West 395 455 32,000  Level FlightAware ADS-B (USTR / TJM)
08:11AM 56.9653 67.9693 280° West 395 455 32,000  Level FlightAware ADS-B (USTR / TJM)
08:11AM 56.9739 67.8761 280° West 395 455 32,000  Level FlightAware ADS-B (USTR / TJM)
08:11AM 56.9744 67.8709 279° West 395 455 32,000  Level FlightAware ADS-B (USTR / TJM)
08:12AM 56.9824 67.7837 280° West 394 453 32,000  Level FlightAware ADS-B (USTR / TJM)
08:12AM 56.9832 67.7758 280° West 393 452 32,000  Level FlightAware ADS-B (USTR / TJM)
08:12AM 56.9915 67.6837 280° West 392 451 32,000  Level FlightAware ADS-B (USTR / TJM)
08:12AM 56.9953 67.6419 280° West 391 450 32,000  Level FlightAware ADS-B (USTR / TJM)
08:13AM 57.0001 67.5892 279° West 391 450 32,000  Level FlightAware ADS-B (USTR / TJM)
08:13AM 57.0041 67.5443 279° West 390 449 32,000  Level FlightAware ADS-B (USTR / TJM)
08:13AM 57.0127 67.4474 279° West 390 449 32,000  Level FlightAware ADS-B (USTR / TJM)
08:13AM 57.0149 67.4226 279° West 391 450 32,000  Level FlightAware ADS-B (USTR / TJM)
08:14AM 57.0237 67.3223 279° West 391 450 32,000  Level FlightAware ADS-B (USTR / TJM)
08:14AM 57.0241 67.3178 279° West 390 449 32,000  Level FlightAware ADS-B (USTR / TJM)
08:15AM 57.0321 67.2265 279° West 392 451 32,000  Level FlightAware ADS-B (USTR / TJM)
08:15AM 57.0328 67.2187 279° West 391 450 32,000  Level FlightAware ADS-B (USTR / TJM)
08:15AM 57.0406 67.1279 279° West 391 450 32,000  Level FlightAware ADS-B (USTR / TJM)
08:15AM 57.0409 67.1247 279° West 391 450 32,000  Level FlightAware ADS-B (USTR / TJM)
08:16AM 57.0490 67.0305 279° West 392 451 32,000  Level FlightAware ADS-B (USTR / TJM)
08:16AM 57.0498 67.0213 279° West 392 451 32,000  Level FlightAware ADS-B (USTR / TJM)
08:16AM 57.0572 66.9337 279° West 392 451 32,000  Level FlightAware ADS-B (USTR / TJM)
08:16AM 57.0579 66.9258 279° West 392 451 32,000  Level FlightAware ADS-B (USTR / TJM)
08:17AM 57.0653 66.8344 278° West 394 453 32,000  Level FlightAware ADS-B (USTR / TJM)
08:17AM 57.0685 66.7894 278° West 394 453 32,000  Level FlightAware ADS-B (USTR / TJM)
08:17AM 57.0722 66.7385 277° West 395 455 32,000  Level FlightAware ADS-B (USTR / TJM)
08:17AM 57.0779 66.6589 278° West 394 453 32,000  Level FlightAware ADS-B (USTR / TJM)
08:18AM 57.0796 66.6350 277° West 395 455 32,000  Level FlightAware ADS-B (USTR / TJM)
08:18AM 57.0866 66.5375 278° West 396 456 32,000  Level FlightAware ADS-B (USTR / TJM)
08:18AM 57.0869 66.5342 278° West 395 455 32,000  Level FlightAware ADS-B (USTR / TJM)
08:18AM 57.0905 66.4831 278° West 396 456 32,000  Level FlightAware ADS-B (USTR / TJM)
08:20AM 57.1137 66.1553 278° West 393 452 32,000  Level FlightAware ADS-B (USTR / TJM)
08:20AM 57.1208 66.0510 277° West 393 452 32,000  Level FlightAware ADS-B (USTR / TJM)
08:21AM 57.1219 66.0364 277° West 392 451 32,000  Level FlightAware ADS-B (USTR / TJM)
08:21AM 57.1236 66.0101 277° West 393 452 32,000  Level FlightAware ADS-B (USTR / TJM)
08:22AM 57.1360 65.8243 277° West 390 449 32,000  Level FlightAware ADS-B (USTR / TJM)
08:23AM 57.1510 65.5951 277° West 389 448 32,000  Level FlightAware ADS-B (USTR / TJM)
08:24AM 57.1673 65.3210 276° West 390 449 32,000  Level FlightAware ADS-B (USTR / TJM)
08:25AM 57.1627 65.0749 268° West 391 450 32,000  Level FlightAware ADS-B (USTR / TJM)
08:26AM 57.1602 64.9755 267° West 390 449 32,000  Level FlightAware ADS-B (USTR / TJM)
08:26AM 57.1596 64.9557 267° West 390 449 32,000  Level FlightAware ADS-B (USTR / TJM)
08:27AM 57.1574 64.8699 267° West 389 448 32,000  Level FlightAware ADS-B (USTR / TJM)
08:28AM 57.1464 64.4903 267° West 397 457 32,000  Level FlightAware ADS-B (USTR / TJM)
08:29AM 57.1433 64.3846 267° West 399 459 32,000  Level FlightAware ADS-B (USTR / TJM)
08:29AM 57.1437 64.3982 87° East 399 459 32,000  Level FlightAware ADS-B (USTR / TJM)
08:29AM 57.1402 64.2871 267° West 401 461 32,000  Level FlightAware ADS-B (USTR / TJM)
08:29AM 57.1399 64.2770 267° West 401 461 32,000  Level FlightAware ADS-B (USTR / TJM)
08:30AM 57.1369 64.1820 267° West 401 461 32,000  Level FlightAware ADS-B (USTR / TJM)
08:30AM 57.1355 64.1391 267° West 401 461 32,000  Level FlightAware ADS-B (USTR / TJM)
08:30AM 57.1338 64.0848 267° West 402 463 32,000  Level FlightAware ADS-B (USTR / TJM)
08:31AM 57.1312 64.0087 266° West 401 461 32,000  Level FlightAware ADS-B (USTR / TJM)
08:31AM 57.1301 63.9788 266° West 402 463 32,000  Level FlightAware ADS-B (USTR / TJM)
08:31AM 57.1278 63.9128 266° West 402 463 32,000  Level FlightAware ADS-B (USTR / TJM)
08:31AM 57.1267 63.8815 266° West 402 463 32,000  Level FlightAware ADS-B (USTR / TJM)
08:32AM 57.1240 63.8060 266° West 403 464 32,000  Level FlightAware ADS-B (USTR / TJM)
08:32AM 57.1225 63.7746 265° West 405 466 32,000  Level FlightAware ADS-B (USTR / TJM)
08:32AM 57.1188 63.7008 265° West 405 466 32,000  Level FlightAware ADS-B (USTR / TJM)
08:32AM 57.1175 63.6748 264° West 406 467 32,000  Level FlightAware ADS-B (USTR / TJM)
08:33AM 57.1118 63.5717 264° West 406 467 32,000  Level FlightAware ADS-B (USTR / TJM)
08:33AM 57.1112 63.5614 264° West 405 466 32,000  Level FlightAware ADS-B (USTR / TJM)
08:33AM 57.1063 63.4691 264° West 406 467 32,000  Level FlightAware ADS-B (USTR / TJM)
08:34AM 57.1039 63.4232 265° West 406 467 32,000  Level FlightAware ADS-B (USTR / TJM)
08:34AM 57.1008 63.3644 265° West 405 466 32,000  Level FlightAware ADS-B (USTR / TJM)
08:34AM 57.0986 63.3213 265° West 406 467 32,000  Level FlightAware ADS-B (USTR / TJM)
08:34AM 57.0953 63.2603 264° West 407 468 32,000  Level FlightAware ADS-B (USTR / TJM)
08:35AM 57.0910 63.1828 264° West 407 468 32,000  Level FlightAware ADS-B (USTR / TJM)
08:35AM 57.0895 63.1554 264° West 408 470 32,000  Level FlightAware ADS-B (USTR / TJM)
08:35AM 57.0852 63.0785 264° West 407 468 32,000  Level FlightAware ADS-B (USTR / TJM)
08:35AM 57.0840 63.0579 264° West 408 470 32,000  Level FlightAware ADS-B (USTR / TJM)
08:36AM 57.0797 62.9797 264° West 408 470 32,000  Level FlightAware ADS-B (USTR / TJM)
08:36AM 57.0781 62.9509 264° West 409 471 32,000  Level FlightAware ADS-B (USTR / TJM)
08:36AM 57.0723 62.8472 264° West 408 470 32,000  Level FlightAware ADS-B (USTR / TJM)
08:36AM 57.0718 62.8390 264° West 407 468 32,000  Level FlightAware ADS-B (USTR / TJM)
08:37AM 57.0666 62.7490 264° West 408 470 32,000  Level FlightAware ADS-B (USTR / TJM)
08:37AM 57.0660 62.7380 264° West 407 468 32,000  Level FlightAware ADS-B (USTR / TJM)
08:37AM 57.0605 62.6448 264° West 408 470 32,000  Level FlightAware ADS-B (USTR / TJM)
08:38AM 57.0583 62.6064 264° West 407 468 32,000  Level FlightAware ADS-B (USTR / TJM)
08:38AM 57.0544 62.5414 264° West 408 470 32,000  Level FlightAware ADS-B (USTR / TJM)
08:38AM 57.0516 62.4941 264° West 408 470 32,000  Level FlightAware ADS-B (USTR / TJM)
08:38AM 57.0482 62.4393 264° West 409 471 32,000  Level FlightAware ADS-B (USTR / TJM)
08:39AM 57.0456 62.3967 264° West 409 471 32,000  Level FlightAware ADS-B (USTR / TJM)
08:39AM 57.0419 62.3354 264° West 410 472 32,000  Level FlightAware ADS-B (USTR / TJM)
08:39AM 57.0392 62.2927 263° West 411 473 32,000  Level FlightAware ADS-B (USTR / TJM)
08:39AM 57.0353 62.2311 263° West 412 474 32,000  Level FlightAware ADS-B (USTR / TJM)
08:40AM 57.0324 62.1854 263° West 413 475 32,000  Level FlightAware ADS-B (USTR / TJM)
08:40AM 57.0288 62.1282 263° West 416 479 32,000  Level FlightAware ADS-B (USTR / TJM)
08:40AM 57.0259 62.0821 263° West 417 480 32,000  Level FlightAware ADS-B (USTR / TJM)
08:40AM 57.0224 62.0281 263° West 418 481 32,000  Level FlightAware ADS-B (USTR / TJM)
08:41AM 57.0195 61.9810 263° West 419 482 32,000  Level FlightAware ADS-B (USTR / TJM)
08:41AM 57.0151 61.9134 263° West 421 484 32,000  Level FlightAware ADS-B (USTR / TJM)
08:41AM 57.0124 61.8718 263° West 420 483 32,000  Level FlightAware ADS-B (USTR / TJM)
08:41AM 57.0084 61.8112 263° West 421 484 32,000  Level FlightAware ADS-B (USTR / TJM)
08:42AM 57.0034 61.7356 263° West 421 484 32,000  Level FlightAware ADS-B (USTR / TJM)
08:42AM 57.0013 61.7038 263° West 422 486 32,000  Level FlightAware ADS-B (USTR / TJM)
08:42AM 56.9960 61.6252 263° West 422 486 32,000  Level FlightAware ADS-B (USTR / TJM)
08:42AM 56.9940 61.5955 263° West 423 487 32,000 180 Level FlightAware ADS-B (USTR / TJM)
08:43AM 56.9886 61.5176 263° West 421 484 32,100 180 Climbing FlightAware ADS-B (USTR / TJM)
08:43AM 56.9867 61.4894 263° West 422 486 32,100  Level FlightAware ADS-B (USTR / TJM)
08:43AM 56.9812 61.4106 263° West 418 481 32,100  Level FlightAware ADS-B (USTR / TJM)
08:43AM 56.9796 61.3875 263° West 418 481 32,100  Level FlightAware ADS-B (USTR / TJM)
08:44AM 56.9742 61.3108 263° West 415 478 32,100 -240 Level FlightAware ADS-B (USTR / TJM)
08:44AM 56.9724 61.2859 263° West 416 479 32,000 -240 Descending FlightAware ADS-B (USTR / TJM)
08:44AM 56.9666 61.2019 263° West 413 475 32,000  Level FlightAware ADS-B (USTR / TJM)
08:44AM 56.9648 61.1769 263° West 414 476 32,000  Level FlightAware ADS-B (USTR / TJM)
08:45AM 56.9595 61.1015 263° West 413 475 32,000  Level FlightAware ADS-B (USTR / TJM)
08:45AM 56.9575 61.0733 262° West 413 475 32,000  Level FlightAware ADS-B (USTR / TJM)
08:45AM 56.9521 60.9981 263° West 412 474 32,000  Level FlightAware ADS-B (USTR / TJM)
08:45AM 56.9501 60.9712 263° West 413 475 32,000  Level FlightAware ADS-B (USTR / TJM)
08:46AM 56.9445 60.8939 262° West 412 474 32,000  Level FlightAware ADS-B (USTR / TJM)
08:46AM 56.9424 60.8664 262° West 413 475 32,000  Level FlightAware ADS-B (USTR / TJM)
08:46AM 56.9373 60.7967 262° West 413 475 32,000  Level FlightAware ADS-B (USTR / TJM)
08:46AM 56.9347 60.7622 262° West 414 476 32,000  Level FlightAware ADS-B (USTR / TJM)
08:47AM 56.9311 60.6856 265° West 409 471 32,000  Level FlightAware ADS-B (USTR / TJM)
08:47AM 56.9286 60.6263 266° West 412 474 32,000  Level FlightAware ADS-B (USTR / TJM)
08:47AM 56.9271 60.5903 266° West 412 474 32,000  Level FlightAware ADS-B (USTR / TJM)
08:47AM 56.9257 60.5576 265° West 415 478 32,000 360 Level FlightAware ADS-B (USTR / TJM)
08:53AM 56.8725 59.4732 274° West 421 484 34,000 360 Climbing FlightAware ADS-B (USTR / TJM)
08:55AM 56.8994 58.8885 275° West  Level Estimated
08:56AM 56.9119 58.5934 275° West  Level Estimated
08:57AM 56.9237 58.2981 274° West  Level Estimated
08:58AM 56.9349 58.0026 274° West  Level Estimated
08:59AM 56.9453 57.7070 274° West  Level Estimated
09:00AM 56.9550 57.4112 274° West  Level Estimated
09:01AM 56.9641 57.1152 273° West  Level Estimated
09:02AM 56.9724 56.8191 273° West  Level Estimated
09:03AM 56.9801 56.5229 273° West  Level Estimated
09:04AM 56.9870 56.2266 273° West  Level Estimated
09:05AM 56.9932 55.9301 272° West  Level Estimated
09:06AM 56.9988 55.6336 272° West  Level Estimated
09:07AM 57.0036 55.3369 272° West  Level Estimated
09:08AM 57.0078 55.0403 272° West  Level Estimated
09:09AM 57.0112 54.7435 271° West  Level Estimated
09:10AM 57.0139 54.4467 271° West  Level Estimated
09:11AM 57.0159 54.1499 271° West  Level Estimated
09:12AM 57.0173 53.8530 271° West  Level Estimated
09:13AM 57.0179 53.5561 270° West  Level Estimated
09:14AM 57.0178 53.2593 270° West  Level Estimated
09:15AM 57.0170 52.9624 270° West  Level Estimated
09:16AM 57.0156 52.6655 270° West  Level Estimated
09:17AM 57.0134 52.3687 269° West  Level Estimated
09:18AM 57.0105 52.0719 269° West  Level Estimated
09:19AM 57.0069 51.7752 269° West  Level Estimated
09:20AM 57.0026 51.4785 269° West  Level Estimated
09:21AM 56.9976 51.1819 268° West  Level Estimated
09:22AM 56.9919 50.8854 268° West  Level Estimated
09:23AM 56.9855 50.5889 268° West  Level Estimated
09:24AM 56.9784 50.2926 268° West  Level Estimated
09:25AM 56.9706 49.9964 267° West  Level Estimated
09:26AM 56.9621 49.7004 267° West  Level Estimated
09:27AM 56.9529 49.4045 267° West  Level Estimated
09:28AM 56.9431 49.1087 267° West  Level Estimated
09:29AM 56.9325 48.8131 266° West  Level Estimated
09:30AM 56.9212 48.5176 266° West  Level Estimated
09:31AM 56.9092 48.2224 266° West  Level Estimated
09:32AM 56.8965 47.9273 266° West  Level Estimated
09:33AM 56.8831 47.6325 265° West  Level Estimated
09:34AM 56.8691 47.3378 265° West  Level Estimated
09:35AM 56.8543 47.0434 265° West  Level Estimated
09:36AM 56.8389 46.7493 265° West  Level Estimated
09:37AM 56.8227 46.4553 264° West  Level Estimated
09:38AM 56.8059 46.1617 264° West  Level Estimated
09:39AM 56.7884 45.8683 264° West  Level Estimated
09:40AM 56.7702 45.5752 264° West  Level Estimated
09:41AM 56.7513 45.2823 263° West  Level Estimated
09:42AM 56.7317 44.9898 263° West  Level Estimated
09:43AM 56.7114 44.6976 263° West  Level Estimated
09:44AM 56.6905 44.4057 263° West  Level Estimated
09:45AM 56.6688 44.1141 262° West  Level Estimated
09:46AM 56.6465 43.8229 262° West  Level Estimated
09:47AM 56.6235 43.5320 262° West  Level Estimated
09:48AM 56.5999 43.2415 262° West  Level Estimated
09:49AM 56.5755 42.9514 261° West  Level Estimated
09:50AM 56.5505 42.6616 261° West  Level Estimated
09:51AM 56.5248 42.3722 261° West  Level Estimated
09:52AM 56.4985 42.0832 261° West  Level Estimated
09:53AM 56.4714 41.7946 260° West  Level Estimated
09:54AM 56.4437 41.5065 260° West  Level Estimated
09:55AM 56.4154 41.2187 260° West  Level Estimated
09:56AM 56.3863 40.9314 260° West  Level Estimated
09:57AM 56.3566 40.6446 260° West  Level Estimated
09:58AM 56.3263 40.3582 259° West  Level Estimated
09:59AM 56.2952 40.0722 259° West  Level Estimated
10:00AM 56.2636 39.7867 259° West  Level Estimated
10:01AM 56.2313 39.5017 259° West  Level Estimated
10:02AM 56.1983 39.2172 258° West  Level Estimated
10:03AM 56.1646 38.9332 258° West  Level Estimated
10:04AM 56.1303 38.6497 258° West  Level Estimated
10:05AM 56.0954 38.3667 258° West  Level Estimated
10:06AM 56.0598 38.0842 257° West  Level Estimated
10:07AM 56.0236 37.8022 257° West  Level Estimated
10:08AM 55.9867 37.5208 257° West  Level Estimated
10:09AM 55.9726 37.4146 257° West  Level Estimated
10:10AM 55.9726 37.4146 344° North  Level Estimated
10:11AM 55.9726 37.4146 344° North  Level Estimated
10:12AM 55.9726 37.4146 344° North  Level Estimated
10:13AM 55.9726 37.4146 344° North  Level Estimated
10:14AM 55.9726 37.4146 344° North  Level Estimated
10:15AM 55.9726 37.4146 344° North  Level Estimated
10:16AM 55.9726 37.4146 344° North  Level Estimated
10:17AM 55.9726 37.4146 344° North  Level Estimated
10:18AM 55.9726 37.4146 344° North  Level Estimated
10:19AM 55.9726 37.4146 344° North  Level Estimated
10:20AM 55.9726 37.4146 344° North  Level Estimated
10:21AM 55.9726 37.4146 344° North  Level Estimated
10:22AM 55.9726 37.4146 344° North  Level Estimated
10:23AM 55.9726 37.4146 344° North  Level Estimated
10:24AM 55.9726 37.4146 344° North  Level Estimated
10:25AM 55.9726 37.4146 344° North  Level Estimated
10:26AM 55.9726 37.4146 344° North  Level Estimated
10:27AM 55.9726 37.4146 344° North  Level Estimated
10:28AM 55.9726 37.4146 344° North  Level Estimated
10:29AM 55.9726 37.4146 344° North  Level Estimated
10:30AM 55.9726 37.4146 344° North  Level Estimated
10:31AM 55.9726 37.4146 344° North  Level Estimated
10:32AM 55.9726 37.4146 344° North  Level Estimated
10:33AM 55.9726 37.4146 344° North  Level Estimated
10:34AM 55.9726 37.4146 344° North  Level Estimated
10:35AM 55.9726 37.4146 344° North  Level Estimated
10:36AM 55.9726 37.4146 344° North  Level Estimated
10:37AM 55.9726 37.4146 344° North  Level Estimated
10:38AM 55.9726 37.4146 344° North  Level Estimated
10:39AM 55.9726 37.4146 344° North  Level Estimated
10:40AM 55.9726 37.4146 344° North  Level Estimated
10:41AM 55.9726 37.4146 344° North  Level Estimated
10:42AM 55.9726 37.4146 344° North  Level Estimated
10:43AM 55.9726 37.4146 344° North  Level Estimated
10:44AM 55.9726 37.4146 344° North  Level Estimated
10:45AM 55.9726 37.4146 344° North  Level Estimated
10:46AM 55.9726 37.4146 344° North  Level Estimated
10:47AM 55.9726 37.4146 344° North  Level Estimated
10:48AM 55.9726 37.4146 344° North  Level Estimated
10:49AM 55.9726 37.4146 344° North  Level Estimated
10:50AM 55.9726 37.4146 344° North  Level Estimated
10:51AM 55.9726 37.4146 344° North  Level Estimated
10:52AM 55.9726 37.4146 344° North  Level Estimated
10:53AM 55.9726 37.4146 344° North  Level Estimated
10:54AM 55.9726 37.4146 344° North  Level Estimated
10:55AM 55.9726 37.4146 344° North  Level Estimated
10:56AM 55.9726 37.4146 344° North  Level Estimated
10:57AM 55.9726 37.4146 344° North  Level Estimated
10:58AM 55.9726 37.4146 344° North  Level Estimated